Time;durP1;ratioP1;P1;durP2;ratioP2;P2;SDS_P1;SDS_P2;PMS_P1;PMS_P2;Temp;Humidity;BMP_temperature;BMP_pressure;BME280_temperature;BME280_humidity;BME280_pressure;Samples;Min_cycle;Max_cycle;Signal;HPM_P1;HPM_P2
2022/03/16 00:00:23;;;;;;;;;;;;;;;;;;516374;28;10000901;-35
2022/03/16 00:01:04;;;;;;;;;;;;;;;;;;322564;28;10001059;-37
2022/03/16 00:01:35;;;;;;;;;;;;;;;;;;5;1004;10000991;-38
2022/03/16 00:02:06;;;;;;;;;;;;;;;;;;945879;28;2834;-38
2022/03/16 00:02:37;;;;;;;;;;;;;;;;;;963469;28;4379;-34
2022/03/16 00:03:08;;;;;;;;;;;;;;;;;;952320;28;3788;-39
2022/03/16 00:03:39;;;;;;;;;;;;;;;;;;945401;28;3133;-36
2022/03/16 00:04:09;;;;;;;;;;;;;;;;;;157882;28;10000432;-36
2022/03/16 00:04:40;;;;;;;;;;;;;;;;;;1036905;28;1468;-37
2022/03/16 00:05:10;;;;;;;;;;;;;;;;;;1038925;28;1930;-36
2022/03/16 00:05:40;;;;;;;;;;;;;;;;;;1039396;28;1112;-38
2022/03/16 00:06:11;;;;;;;;;;;;;;;;;;1039415;28;968;-35
2022/03/16 00:06:41;;;;;;;;;;;;;;;;;;1039535;28;835;-37
2022/03/16 00:07:11;;;;;;;;;;;;;;;;;;1039454;28;960;-33
2022/03/16 00:07:42;;;;;;;;;;;;;;;;;;1039363;28;977;-35
2022/03/16 00:08:12;;;;;;;;;;;;;;;;;;1039657;28;866;-32
2022/03/16 00:08:43;;;;;;;;;;;;;;;;;;1035637;28;843;-38
2022/03/16 00:09:13;;;;;;;;;;;;;;;;;;1035974;28;1611;-37
2022/03/16 00:09:43;;;;;;;;;;;;;;;;;;1035906;28;937;-36
2022/03/16 00:10:16;;;;;;;;;;;;;;;;;;747061;28;9999940;-36
2022/03/16 00:10:47;;;;;;;;;;;;;;;;;;518285;28;10000405;-35
2022/03/16 00:11:25;;;;;;;;;;;;;;;;;;239744;28;10001797;-37
2022/03/16 00:11:56;;;;;;;;;;;;;;;;;;5;954;10000988;-35
2022/03/16 00:12:27;;;;;;;;;;;;;;;;;;919956;28;3733;-39
2022/03/16 00:12:58;;;;;;;;;;;;;;;;;;919068;28;3567;-38
2022/03/16 00:13:29;;;;;;;;;;;;;;;;;;901361;28;2344;-38
2022/03/16 00:14:00;;;;;;;;;;;;;;;;;;910714;28;2545;-34
2022/03/16 00:14:31;;;;;;;;;;;;;;;;;;916156;28;2807;-39
2022/03/16 00:15:02;;;;;;;;;;;;;;;;;;920415;28;3132;-38
2022/03/16 00:15:33;;;;;;;;;;;;;;;;;;912942;28;3138;-36
2022/03/16 00:16:05;;;;;;;;;;;;;;;;;;922006;28;4083;-34
2022/03/16 00:16:36;;;;;;;;;;;;;;;;;;918684;28;3188;-34
2022/03/16 00:17:07;;;;;;;;;;;;;;;;;;916210;28;2938;-34
2022/03/16 00:17:38;;;;;;;;;;;;;;;;;;911945;28;5073;-33
2022/03/16 00:18:12;;;;;;;;;;;;;;;;;;923518;28;3165;-35
2022/03/16 00:18:42;;;;;;;;;;;;;;;;;;919058;28;2729;-39
2022/03/16 00:19:14;;;;;;;;;;;;;;;;;;923889;28;3143;-38
2022/03/16 00:19:46;;;;;;;;;;;;;;;;;;917772;28;3567;-37
2022/03/16 00:20:17;;;;;;;;;;;;;;;;;;918031;28;2662;-36
2022/03/16 00:20:51;;;;;;;;;;;;;;;;;;911363;28;2468;-36
2022/03/16 00:21:23;;;;;;;;;;;;;;;;;;917813;28;2569;-36
2022/03/16 00:21:53;;;;;;;;;;;;;;;;;;914306;28;2210;-37
2022/03/16 00:22:24;;;;;;;;;;;;;;;;;;917237;28;2145;-39
2022/03/16 00:22:56;;;;;;;;;;;;;;;;;;922550;28;3214;-33
2022/03/16 00:23:26;;;;;;;;;;;;;;;;;;931452;28;3172;-34
2022/03/16 00:24:06;;;;;;;;;;;;;;;;;;1005221;28;10000251;-34
2022/03/16 00:24:37;;;;;;;;;;;;;;;;;;518925;28;10000289;-35
2022/03/16 00:25:15;;;;;;;;;;;;;;;;;;265087;28;10001710;-36
2022/03/16 00:25:46;;;;;;;;;;;;;;;;;;5;1003;10001142;-34
2022/03/16 00:26:16;;;;;;;;;;;;;;;;;;1035684;28;1046;-35
2022/03/16 00:26:47;;;;;;;;;;;;;;;;;;1033981;28;985;-34
2022/03/16 00:27:17;;;;;;;;;;;;;;;;;;1035402;28;807;-36
2022/03/16 00:27:49;;;;;;;;;;;;;;;;;;1034945;28;831;-34
2022/03/16 00:28:19;;;;;;;;;;;;;;;;;;1035439;28;834;-34
2022/03/16 00:28:50;;;;;;;;;;;;;;;;;;1035470;28;803;-36
2022/03/16 00:29:20;;;;;;;;;;;;;;;;;;1035718;28;978;-35
2022/03/16 00:29:51;;;;;;;;;;;;;;;;;;1035470;28;1118;-35
2022/03/16 00:30:21;;;;;;;;;;;;;;;;;;1035722;28;799;-36
2022/03/16 00:30:51;;;;;;;;;;;;;;;;;;1035893;28;937;-34
2022/03/16 00:31:22;;;;;;;;;;;;;;;;;;1035681;28;882;-32
2022/03/16 00:31:52;;;;;;;;;;;;;;;;;;1035618;28;1166;-33
2022/03/16 00:32:22;;;;;;;;;;;;;;;;;;1035756;28;870;-34
2022/03/16 00:32:53;;;;;;;;;;;;;;;;;;1035591;28;952;-35
2022/03/16 00:33:23;;;;;;;;;;;;;;;;;;1035893;28;866;-36
2022/03/16 00:33:55;;;;;;;;;;;;;;;;;;1035270;28;878;-35
2022/03/16 00:34:26;;;;;;;;;;;;;;;;;;1035573;28;985;-37
2022/03/16 00:34:56;;;;;;;;;;;;;;;;;;1035055;28;827;-34
2022/03/16 00:35:26;;;;;;;;;;;;;;;;;;1035145;28;1149;-34
2022/03/16 00:35:57;;;;;;;;;;;;;;;;;;1035337;28;839;-36
2022/03/16 00:36:27;;;;;;;;;;;;;;;;;;1033805;28;952;-37
2022/03/16 00:36:58;;;;;;;;;;;;;;;;;;1031919;28;1171;-35
2022/03/16 00:37:32;;;;;;;;;;;;;;;;;;227655;28;10000574;-37
2022/03/16 00:38:22;;;;;;;;;;;;;;;;;;666765;28;10000650;-36
2022/03/16 00:38:53;;;;;;;;;;;;;;;;;;345628;28;10001106;-38
2022/03/16 00:39:23;;;;;;;;;;;;;;;;;;1038547;28;747;-36
2022/03/16 00:39:54;;;;;;;;;;;;;;;;;;1033245;28;1421;-35
2022/03/16 00:40:24;;;;;;;;;;;;;;;;;;1033369;28;1646;-36
2022/03/16 00:40:54;;;;;;;;;;;;;;;;;;1033187;28;890;-36
2022/03/16 00:41:25;;;;;;;;;;;;;;;;;;1032958;28;783;-37
2022/03/16 00:41:55;;;;;;;;;;;;;;;;;;1041142;28;1331;-36
2022/03/16 00:42:26;;;;;;;;;;;;;;;;;;1037537;28;1499;-36
2022/03/16 00:42:57;;;;;;;;;;;;;;;;;;1037381;28;993;-36
2022/03/16 00:43:27;;;;;;;;;;;;;;;;;;1037483;28;874;-36
2022/03/16 00:43:58;;;;;;;;;;;;;;;;;;1032921;28;871;-32
2022/03/16 00:44:28;;;;;;;;;;;;;;;;;;1033342;28;1295;-36
2022/03/16 00:44:59;;;;;;;;;;;;;;;;;;1033253;28;1395;-34
2022/03/16 00:45:31;;;;;;;;;;;;;;;;;;1033439;28;1991;-34
2022/03/16 00:46:01;;;;;;;;;;;;;;;;;;1028849;28;1367;-36
2022/03/16 00:46:32;;;;;;;;;;;;;;;;;;1032973;28;862;-29
2022/03/16 00:47:03;;;;;;;;;;;;;;;;;;1032355;28;1293;-31
2022/03/16 00:47:33;;;;;;;;;;;;;;;;;;1033336;28;1275;-33
2022/03/16 00:48:03;;;;;;;;;;;;;;;;;;1037291;28;1014;-33
2022/03/16 00:48:34;;;;;;;;;;;;;;;;;;1037398;28;847;-34
2022/03/16 00:49:05;;;;;;;;;;;;;;;;;;1040256;28;878;-35
2022/03/16 00:49:36;;;;;;;;;;;;;;;;;;1037808;28;834;-35
2022/03/16 00:50:07;;;;;;;;;;;;;;;;;;1033220;28;1444;-30
2022/03/16 00:50:38;;;;;;;;;;;;;;;;;;1029378;28;925;-35
2022/03/16 00:51:08;;;;;;;;;;;;;;;;;;1030745;28;946;-33
2022/03/16 00:51:39;;;;;;;;;;;;;;;;;;1034084;28;1087;-35
2022/03/16 00:52:09;;;;;;;;;;;;;;;;;;1041246;28;1159;-34
2022/03/16 00:52:40;;;;;;;;;;;;;;;;;;1039569;28;1005;-32
2022/03/16 00:53:10;;;;;;;;;;;;;;;;;;1041271;28;828;-32
2022/03/16 00:53:41;;;;;;;;;;;;;;;;;;1040218;28;917;-30
2022/03/16 00:54:12;;;;;;;;;;;;;;;;;;1036562;28;1280;-32
2022/03/16 00:54:43;;;;;;;;;;;;;;;;;;1039135;28;883;-31
2022/03/16 00:55:14;;;;;;;;;;;;;;;;;;1039857;28;961;-33
2022/03/16 00:55:44;;;;;;;;;;;;;;;;;;1037382;28;1059;-35
2022/03/16 00:56:14;;;;;;;;;;;;;;;;;;1035783;28;1078;-35
2022/03/16 00:56:45;;;;;;;;;;;;;;;;;;1036457;28;1063;-31
2022/03/16 00:57:15;;;;;;;;;;;;;;;;;;1037343;28;787;-36
2022/03/16 00:57:45;;;;;;;;;;;;;;;;;;1032162;28;1184;-35
2022/03/16 00:58:16;;;;;;;;;;;;;;;;;;1033356;28;965;-35
2022/03/16 00:58:46;;;;;;;;;;;;;;;;;;1030938;28;935;-35
2022/03/16 00:59:17;;;;;;;;;;;;;;;;;;1031199;28;879;-33
2022/03/16 00:59:47;;;;;;;;;;;;;;;;;;1032868;28;902;-33
2022/03/16 01:00:17;;;;;;;;;;;;;;;;;;1034301;28;1183;-35
2022/03/16 01:00:48;;;;;;;;;;;;;;;;;;1040666;28;984;-33
2022/03/16 01:01:18;;;;;;;;;;;;;;;;;;1037087;28;882;-35
2022/03/16 01:01:48;;;;;;;;;;;;;;;;;;1035202;28;1326;-32
2022/03/16 01:02:19;;;;;;;;;;;;;;;;;;1035964;28;953;-36
2022/03/16 01:02:49;;;;;;;;;;;;;;;;;;1035424;28;830;-36
2022/03/16 01:03:19;;;;;;;;;;;;;;;;;;1035178;28;834;-31
2022/03/16 01:03:50;;;;;;;;;;;;;;;;;;1038653;28;902;-34
2022/03/16 01:04:20;;;;;;;;;;;;;;;;;;1035578;28;815;-35
2022/03/16 01:04:50;;;;;;;;;;;;;;;;;;1039636;28;982;-32
2022/03/16 01:05:21;;;;;;;;;;;;;;;;;;1033320;28;1975;-36
2022/03/16 01:05:51;;;;;;;;;;;;;;;;;;1031487;28;894;-32
2022/03/16 01:06:22;;;;;;;;;;;;;;;;;;1026772;28;1523;-36
2022/03/16 01:06:55;;;;;;;;;;;;;;;;;;1027785;28;874;-35
2022/03/16 01:07:25;;;;;;;;;;;;;;;;;;1031517;28;994;-35
2022/03/16 01:07:57;;;;;;;;;;;;;;;;;;1031347;28;827;-34
2022/03/16 01:08:28;;;;;;;;;;;;;;;;;;1035761;28;799;-36
2022/03/16 01:08:58;;;;;;;;;;;;;;;;;;1035853;28;957;-36
2022/03/16 01:09:29;;;;;;;;;;;;;;;;;;1035411;28;1155;-34
2022/03/16 01:09:59;;;;;;;;;;;;;;;;;;1035464;28;787;-37
2022/03/16 01:10:29;;;;;;;;;;;;;;;;;;1035565;28;843;-31
2022/03/16 01:11:00;;;;;;;;;;;;;;;;;;1034773;28;980;-35
2022/03/16 01:11:31;;;;;;;;;;;;;;;;;;1035975;28;818;-35
2022/03/16 01:12:04;;;;;;;;;;;;;;;;;;1035396;28;1317;-34
2022/03/16 01:12:34;;;;;;;;;;;;;;;;;;1031169;28;1291;-37
2022/03/16 01:13:05;;;;;;;;;;;;;;;;;;1031535;28;846;-36
2022/03/16 01:13:35;;;;;;;;;;;;;;;;;;1031294;28;934;-32
2022/03/16 01:14:06;;;;;;;;;;;;;;;;;;1031640;28;826;-36
2022/03/16 01:14:37;;;;;;;;;;;;;;;;;;1031336;28;2304;-35
2022/03/16 01:15:07;;;;;;;;;;;;;;;;;;1031449;28;1024;-36
2022/03/16 01:15:39;;;;;;;;;;;;;;;;;;1031239;28;827;-34
2022/03/16 01:16:09;;;;;;;;;;;;;;;;;;1031699;28;953;-35
2022/03/16 01:16:40;;;;;;;;;;;;;;;;;;1035718;28;816;-34
2022/03/16 01:17:10;;;;;;;;;;;;;;;;;;1035860;28;838;-35
2022/03/16 01:17:41;;;;;;;;;;;;;;;;;;1035690;28;937;-36
2022/03/16 01:18:11;;;;;;;;;;;;;;;;;;1035808;28;1082;-33
2022/03/16 01:18:42;;;;;;;;;;;;;;;;;;1035092;28;925;-36
2022/03/16 01:19:14;;;;;;;;;;;;;;;;;;1035704;28;926;-35
2022/03/16 01:19:45;;;;;;;;;;;;;;;;;;1033960;28;1693;-31
2022/03/16 01:20:15;;;;;;;;;;;;;;;;;;1035327;28;886;-36
2022/03/16 01:20:45;;;;;;;;;;;;;;;;;;1035443;28;934;-37
2022/03/16 01:21:16;;;;;;;;;;;;;;;;;;1035451;28;913;-36
2022/03/16 01:21:46;;;;;;;;;;;;;;;;;;1039431;28;1161;-36
2022/03/16 01:22:16;;;;;;;;;;;;;;;;;;1039507;28;1057;-37
2022/03/16 01:22:47;;;;;;;;;;;;;;;;;;1039447;28;917;-32
2022/03/16 01:23:18;;;;;;;;;;;;;;;;;;1039515;28;838;-36
2022/03/16 01:23:48;;;;;;;;;;;;;;;;;;1035419;28;1133;-33
2022/03/16 01:24:21;;;;;;;;;;;;;;;;;;1035500;28;839;-35
2022/03/16 01:24:51;;;;;;;;;;;;;;;;;;1035506;28;958;-36
2022/03/16 01:25:23;;;;;;;;;;;;;;;;;;1032891;28;1914;-34
2022/03/16 01:25:54;;;;;;;;;;;;;;;;;;1035087;28;1011;-34
2022/03/16 01:26:24;;;;;;;;;;;;;;;;;;1035960;28;882;-34
2022/03/16 01:26:54;;;;;;;;;;;;;;;;;;1035540;28;1012;-33
2022/03/16 01:27:25;;;;;;;;;;;;;;;;;;1035780;28;914;-35
2022/03/16 01:27:55;;;;;;;;;;;;;;;;;;1035505;28;910;-36
2022/03/16 01:28:25;;;;;;;;;;;;;;;;;;1035773;28;803;-36
2022/03/16 01:28:56;;;;;;;;;;;;;;;;;;1038764;28;847;-35
2022/03/16 01:29:26;;;;;;;;;;;;;;;;;;1035354;28;910;-34
2022/03/16 01:29:56;;;;;;;;;;;;;;;;;;1035269;28;1161;-36
2022/03/16 01:30:27;;;;;;;;;;;;;;;;;;1031482;28;799;-34
2022/03/16 01:30:59;;;;;;;;;;;;;;;;;;1031221;28;799;-37
2022/03/16 01:31:30;;;;;;;;;;;;;;;;;;1031728;28;1311;-33
2022/03/16 01:32:00;;;;;;;;;;;;;;;;;;1035597;28;957;-34
2022/03/16 01:32:31;;;;;;;;;;;;;;;;;;1039632;28;997;-33
2022/03/16 01:33:01;;;;;;;;;;;;;;;;;;1039391;28;996;-37
2022/03/16 01:33:32;;;;;;;;;;;;;;;;;;1039346;28;803;-33
2022/03/16 01:34:02;;;;;;;;;;;;;;;;;;1039764;28;826;-34
2022/03/16 01:34:35;;;;;;;;;;;;;;;;;;1035338;28;1295;-36
2022/03/16 01:35:05;;;;;;;;;;;;;;;;;;1035224;28;1830;-35
2022/03/16 01:35:36;;;;;;;;;;;;;;;;;;1035366;28;1287;-36
2022/03/16 01:36:06;;;;;;;;;;;;;;;;;;1035580;28;969;-35
2022/03/16 01:36:37;;;;;;;;;;;;;;;;;;1039612;28;890;-34
2022/03/16 01:37:08;;;;;;;;;;;;;;;;;;1039504;28;890;-34
2022/03/16 01:37:39;;;;;;;;;;;;;;;;;;1039348;28;1600;-34
2022/03/16 01:38:09;;;;;;;;;;;;;;;;;;1039386;28;926;-34
2022/03/16 01:38:40;;;;;;;;;;;;;;;;;;1035298;28;1281;-34
2022/03/16 01:39:10;;;;;;;;;;;;;;;;;;1035381;28;811;-36
2022/03/16 01:39:41;;;;;;;;;;;;;;;;;;1035394;28;862;-35
2022/03/16 01:40:11;;;;;;;;;;;;;;;;;;1035425;28;854;-34
2022/03/16 01:40:42;;;;;;;;;;;;;;;;;;1039352;28;835;-36
2022/03/16 01:41:13;;;;;;;;;;;;;;;;;;1037061;28;751;-35
2022/03/16 01:41:43;;;;;;;;;;;;;;;;;;1035737;28;1284;-36
2022/03/16 01:42:14;;;;;;;;;;;;;;;;;;1037267;28;2252;-33
2022/03/16 01:42:44;;;;;;;;;;;;;;;;;;1039051;28;1506;-35
2022/03/16 01:43:14;;;;;;;;;;;;;;;;;;1040279;28;1103;-29
2022/03/16 01:43:45;;;;;;;;;;;;;;;;;;1041921;28;1056;-31
2022/03/16 01:44:15;;;;;;;;;;;;;;;;;;1039580;28;878;-35
2022/03/16 01:44:46;;;;;;;;;;;;;;;;;;1041191;28;882;-36
2022/03/16 01:45:16;;;;;;;;;;;;;;;;;;1043543;28;1910;-35
2022/03/16 01:45:47;;;;;;;;;;;;;;;;;;1043772;28;890;-36
2022/03/16 01:46:20;;;;;;;;;;;;;;;;;;1043428;28;806;-32
2022/03/16 01:46:50;;;;;;;;;;;;;;;;;;1044118;28;1244;-33
2022/03/16 01:47:22;;;;;;;;;;;;;;;;;;1047626;28;1004;-33
2022/03/16 01:47:52;;;;;;;;;;;;;;;;;;1047586;28;799;-34
2022/03/16 01:48:23;;;;;;;;;;;;;;;;;;1047597;28;763;-33
2022/03/16 01:48:54;;;;;;;;;;;;;;;;;;1048010;28;1403;-34
2022/03/16 01:49:25;;;;;;;;;;;;;;;;;;1047873;28;810;-36
2022/03/16 01:49:55;;;;;;;;;;;;;;;;;;1048051;28;898;-32
2022/03/16 01:50:26;;;;;;;;;;;;;;;;;;1043468;28;866;-32
2022/03/16 01:50:56;;;;;;;;;;;;;;;;;;1043547;28;846;-34
2022/03/16 01:51:27;;;;;;;;;;;;;;;;;;1039423;28;1172;-32
2022/03/16 01:52:01;;;;;;;;;;;;;;;;;;1035682;28;1366;-34
2022/03/16 01:52:31;;;;;;;;;;;;;;;;;;1035444;28;866;-33
2022/03/16 01:53:02;;;;;;;;;;;;;;;;;;1031608;28;1216;-33
2022/03/16 01:53:32;;;;;;;;;;;;;;;;;;1035447;28;1012;-34
2022/03/16 01:54:03;;;;;;;;;;;;;;;;;;1039439;28;984;-34
2022/03/16 01:54:34;;;;;;;;;;;;;;;;;;1035606;28;1195;-35
2022/03/16 01:55:05;;;;;;;;;;;;;;;;;;1035231;28;1613;-35
2022/03/16 01:55:35;;;;;;;;;;;;;;;;;;1030615;28;1313;-36
2022/03/16 01:56:07;;;;;;;;;;;;;;;;;;1027360;28;1308;-34
2022/03/16 01:56:37;;;;;;;;;;;;;;;;;;1035325;28;1197;-35
2022/03/16 01:57:09;;;;;;;;;;;;;;;;;;1035267;28;1316;-33
2022/03/16 01:57:42;;;;;;;;;;;;;;;;;;1035366;28;1177;-34
2022/03/16 01:58:13;;;;;;;;;;;;;;;;;;1031720;28;1224;-34
2022/03/16 01:58:44;;;;;;;;;;;;;;;;;;1031276;28;1161;-36
2022/03/16 01:59:14;;;;;;;;;;;;;;;;;;1031581;28;1291;-32
2022/03/16 01:59:45;;;;;;;;;;;;;;;;;;1035466;28;1172;-36
2022/03/16 02:00:17;;;;;;;;;;;;;;;;;;1039338;28;1224;-34
2022/03/16 02:00:48;;;;;;;;;;;;;;;;;;1038987;28;1184;-32
2022/03/16 02:01:18;;;;;;;;;;;;;;;;;;1039139;28;1312;-35
2022/03/16 02:01:48;;;;;;;;;;;;;;;;;;1039695;28;1449;-32
2022/03/16 02:02:19;;;;;;;;;;;;;;;;;;1043363;28;1211;-36
2022/03/16 02:02:49;;;;;;;;;;;;;;;;;;1038702;28;1167;-35
2022/03/16 02:03:19;;;;;;;;;;;;;;;;;;1039361;28;822;-31
2022/03/16 02:03:50;;;;;;;;;;;;;;;;;;1039290;28;882;-34
2022/03/16 02:04:20;;;;;;;;;;;;;;;;;;1039305;28;886;-35
2022/03/16 02:04:50;;;;;;;;;;;;;;;;;;1039469;28;798;-34
2022/03/16 02:05:21;;;;;;;;;;;;;;;;;;1039170;28;1899;-36
2022/03/16 02:05:51;;;;;;;;;;;;;;;;;;1039511;28;803;-31
2022/03/16 02:06:23;;;;;;;;;;;;;;;;;;1043759;28;827;-34
2022/03/16 02:06:54;;;;;;;;;;;;;;;;;;1043870;28;898;-35
2022/03/16 02:07:24;;;;;;;;;;;;;;;;;;1039242;28;1137;-35
2022/03/16 02:07:55;;;;;;;;;;;;;;;;;;1039220;28;854;-36
2022/03/16 02:08:29;;;;;;;;;;;;;;;;;;1039399;28;822;-34
2022/03/16 02:08:59;;;;;;;;;;;;;;;;;;1040082;28;869;-33
2022/03/16 02:09:30;;;;;;;;;;;;;;;;;;1043250;28;1255;-33
2022/03/16 02:10:03;;;;;;;;;;;;;;;;;;1043682;28;842;-33
2022/03/16 02:10:34;;;;;;;;;;;;;;;;;;1042802;28;783;-32
2022/03/16 02:11:04;;;;;;;;;;;;;;;;;;1043678;28;842;-32
2022/03/16 02:11:34;;;;;;;;;;;;;;;;;;1043640;28;815;-36
2022/03/16 02:12:05;;;;;;;;;;;;;;;;;;1043991;28;897;-33
2022/03/16 02:13:02;;;;;;;;;;;;;;;;;;1043662;28;1002;-34
2022/03/16 02:13:36;;;;;;;;;;;;;;;;;;1040512;28;2332;-36
2022/03/16 02:14:06;;;;;;;;;;;;;;;;;;1043824;28;937;-34
2022/03/16 02:14:37;;;;;;;;;;;;;;;;;;1043744;28;932;-34
2022/03/16 02:15:08;;;;;;;;;;;;;;;;;;1043765;28;886;-36
2022/03/16 02:15:39;;;;;;;;;;;;;;;;;;1043581;28;1631;-36
2022/03/16 02:16:10;;;;;;;;;;;;;;;;;;1043875;28;826;-33
2022/03/16 02:16:40;;;;;;;;;;;;;;;;;;1043865;28;918;-33
2022/03/16 02:17:11;;;;;;;;;;;;;;;;;;1043677;28;937;-34
2022/03/16 02:17:41;;;;;;;;;;;;;;;;;;1043137;28;925;-36
2022/03/16 02:18:12;;;;;;;;;;;;;;;;;;1043662;28;846;-36
2022/03/16 02:18:43;;;;;;;;;;;;;;;;;;1043836;28;794;-36
2022/03/16 02:19:13;;;;;;;;;;;;;;;;;;1043834;28;941;-36
2022/03/16 02:19:44;;;;;;;;;;;;;;;;;;1043655;28;803;-32
2022/03/16 02:20:14;;;;;;;;;;;;;;;;;;1043840;28;967;-35
2022/03/16 02:20:49;;;;;;;;;;;;;;;;;;1043740;28;1001;-35
2022/03/16 02:21:20;;;;;;;;;;;;;;;;;;1043817;28;945;-35
2022/03/16 02:21:54;;;;;;;;;;;;;;;;;;1043696;28;830;-33
2022/03/16 02:22:24;;;;;;;;;;;;;;;;;;1043936;28;818;-33
2022/03/16 02:22:57;;;;;;;;;;;;;;;;;;1043619;28;954;-34
2022/03/16 02:23:28;;;;;;;;;;;;;;;;;;1043696;28;893;-35
2022/03/16 02:23:58;;;;;;;;;;;;;;;;;;1043729;28;842;-31
2022/03/16 02:24:29;;;;;;;;;;;;;;;;;;1043749;28;795;-35
2022/03/16 02:24:59;;;;;;;;;;;;;;;;;;1043219;28;814;-34
2022/03/16 02:25:30;;;;;;;;;;;;;;;;;;1039823;28;1907;-32
2022/03/16 02:26:00;;;;;;;;;;;;;;;;;;1039673;28;862;-36
2022/03/16 02:26:30;;;;;;;;;;;;;;;;;;1039532;28;894;-34
2022/03/16 02:27:01;;;;;;;;;;;;;;;;;;1039807;28;811;-34
2022/03/16 02:27:31;;;;;;;;;;;;;;;;;;1039473;28;793;-35
2022/03/16 02:28:01;;;;;;;;;;;;;;;;;;1039555;28;780;-36
2022/03/16 02:28:32;;;;;;;;;;;;;;;;;;1039550;28;965;-33
2022/03/16 02:29:02;;;;;;;;;;;;;;;;;;1039651;28;878;-35
2022/03/16 02:29:34;;;;;;;;;;;;;;;;;;1039634;28;809;-36
2022/03/16 02:30:04;;;;;;;;;;;;;;;;;;1039650;28;946;-34
2022/03/16 02:30:35;;;;;;;;;;;;;;;;;;1039562;28;938;-34
2022/03/16 02:31:05;;;;;;;;;;;;;;;;;;1039829;28;946;-34
2022/03/16 02:31:35;;;;;;;;;;;;;;;;;;1039451;28;961;-34
2022/03/16 02:32:06;;;;;;;;;;;;;;;;;;1039679;28;961;-32
2022/03/16 02:32:36;;;;;;;;;;;;;;;;;;1039043;28;842;-32
2022/03/16 02:33:06;;;;;;;;;;;;;;;;;;1039599;28;882;-32
2022/03/16 02:33:37;;;;;;;;;;;;;;;;;;1039708;28;826;-35
2022/03/16 02:34:07;;;;;;;;;;;;;;;;;;1039525;28;913;-36
2022/03/16 02:34:37;;;;;;;;;;;;;;;;;;1039596;28;941;-35
2022/03/16 02:35:08;;;;;;;;;;;;;;;;;;1039605;28;866;-32
2022/03/16 02:35:38;;;;;;;;;;;;;;;;;;1039639;28;897;-35
2022/03/16 02:36:09;;;;;;;;;;;;;;;;;;1039747;28;889;-36
2022/03/16 02:36:40;;;;;;;;;;;;;;;;;;1039526;28;973;-35
2022/03/16 02:37:10;;;;;;;;;;;;;;;;;;1039605;28;870;-36
2022/03/16 02:37:40;;;;;;;;;;;;;;;;;;1039678;28;926;-35
2022/03/16 02:38:11;;;;;;;;;;;;;;;;;;1039362;28;962;-36
2022/03/16 02:38:41;;;;;;;;;;;;;;;;;;1039637;28;933;-34
2022/03/16 02:39:11;;;;;;;;;;;;;;;;;;1039582;28;969;-35
2022/03/16 02:39:42;;;;;;;;;;;;;;;;;;1039421;28;890;-33
2022/03/16 02:40:17;;;;;;;;;;;;;;;;;;1039193;28;966;-35
2022/03/16 02:40:48;;;;;;;;;;;;;;;;;;1039433;28;941;-35
2022/03/16 02:41:18;;;;;;;;;;;;;;;;;;1039822;28;802;-37
2022/03/16 02:41:50;;;;;;;;;;;;;;;;;;1039446;28;1181;-35
2022/03/16 02:42:23;;;;;;;;;;;;;;;;;;1039742;28;961;-35
2022/03/16 02:42:54;;;;;;;;;;;;;;;;;;1039493;28;760;-34
2022/03/16 02:43:24;;;;;;;;;;;;;;;;;;1039718;28;941;-33
2022/03/16 02:43:55;;;;;;;;;;;;;;;;;;1039608;28;839;-34
2022/03/16 02:44:25;;;;;;;;;;;;;;;;;;1035331;28;1018;-36
2022/03/16 02:44:56;;;;;;;;;;;;;;;;;;1034920;28;1009;-34
2022/03/16 02:45:26;;;;;;;;;;;;;;;;;;1035279;28;1919;-37
2022/03/16 02:45:56;;;;;;;;;;;;;;;;;;1035152;28;791;-36
2022/03/16 02:46:27;;;;;;;;;;;;;;;;;;1039682;28;787;-36
2022/03/16 02:46:57;;;;;;;;;;;;;;;;;;1039364;28;1106;-36
2022/03/16 02:47:28;;;;;;;;;;;;;;;;;;1039064;28;902;-39
2022/03/16 02:47:58;;;;;;;;;;;;;;;;;;1039484;28;827;-33
2022/03/16 02:48:28;;;;;;;;;;;;;;;;;;1039611;28;934;-33
2022/03/16 02:48:59;;;;;;;;;;;;;;;;;;1039506;28;807;-36
2022/03/16 02:49:31;;;;;;;;;;;;;;;;;;1039681;28;889;-33
2022/03/16 02:50:02;;;;;;;;;;;;;;;;;;1039355;28;981;-34
2022/03/16 02:50:32;;;;;;;;;;;;;;;;;;1039725;28;890;-32
2022/03/16 02:51:03;;;;;;;;;;;;;;;;;;1040178;28;822;-36
2022/03/16 02:51:33;;;;;;;;;;;;;;;;;;1040818;28;843;-38
2022/03/16 02:52:07;;;;;;;;;;;;;;;;;;1040987;28;823;-34
2022/03/16 02:52:38;;;;;;;;;;;;;;;;;;1041009;28;897;-35
2022/03/16 02:53:08;;;;;;;;;;;;;;;;;;1040798;28;953;-36
2022/03/16 02:53:39;;;;;;;;;;;;;;;;;;1040929;28;855;-36
2022/03/16 02:54:09;;;;;;;;;;;;;;;;;;1040874;28;901;-36
2022/03/16 02:54:39;;;;;;;;;;;;;;;;;;1040471;28;1039;-36
2022/03/16 02:55:10;;;;;;;;;;;;;;;;;;1040822;28;885;-37
2022/03/16 02:55:40;;;;;;;;;;;;;;;;;;1040974;28;798;-34
2022/03/16 02:56:11;;;;;;;;;;;;;;;;;;1040896;28;929;-35
2022/03/16 02:56:42;;;;;;;;;;;;;;;;;;1040959;28;776;-34
2022/03/16 02:57:16;;;;;;;;;;;;;;;;;;1040954;28;997;-36
2022/03/16 02:57:46;;;;;;;;;;;;;;;;;;1040644;28;988;-37
2022/03/16 02:58:17;;;;;;;;;;;;;;;;;;1041014;28;866;-35
2022/03/16 02:58:47;;;;;;;;;;;;;;;;;;1036546;28;894;-34
2022/03/16 02:59:17;;;;;;;;;;;;;;;;;;1036468;28;941;-36
2022/03/16 02:59:48;;;;;;;;;;;;;;;;;;1036391;28;1008;-34
2022/03/16 03:00:18;;;;;;;;;;;;;;;;;;1036534;28;894;-32
2022/03/16 03:00:48;;;;;;;;;;;;;;;;;;1040817;28;917;-32
2022/03/16 03:01:19;;;;;;;;;;;;;;;;;;1041038;28;1025;-37
2022/03/16 03:01:49;;;;;;;;;;;;;;;;;;1040802;28;952;-37
2022/03/16 03:02:20;;;;;;;;;;;;;;;;;;1040400;28;909;-33
2022/03/16 03:02:50;;;;;;;;;;;;;;;;;;1041029;28;842;-36
2022/03/16 03:03:21;;;;;;;;;;;;;;;;;;1040930;28;774;-37
2022/03/16 03:03:51;;;;;;;;;;;;;;;;;;1040820;28;921;-36
2022/03/16 03:04:21;;;;;;;;;;;;;;;;;;1040999;28;783;-33
2022/03/16 03:04:52;;;;;;;;;;;;;;;;;;1040929;28;850;-35
2022/03/16 03:05:22;;;;;;;;;;;;;;;;;;1040917;28;1914;-33
2022/03/16 03:05:52;;;;;;;;;;;;;;;;;;1040837;28;897;-36
2022/03/16 03:06:23;;;;;;;;;;;;;;;;;;1040983;28;1078;-33
2022/03/16 03:06:53;;;;;;;;;;;;;;;;;;1040973;28;934;-34
2022/03/16 03:07:24;;;;;;;;;;;;;;;;;;1041036;28;927;-36
2022/03/16 03:07:54;;;;;;;;;;;;;;;;;;1040820;28;837;-36
2022/03/16 03:08:24;;;;;;;;;;;;;;;;;;1040891;28;957;-37
2022/03/16 03:08:55;;;;;;;;;;;;;;;;;;1040859;28;1004;-36
2022/03/16 03:09:25;;;;;;;;;;;;;;;;;;1040490;28;886;-36
2022/03/16 03:09:56;;;;;;;;;;;;;;;;;;1040896;28;870;-37
2022/03/16 03:10:26;;;;;;;;;;;;;;;;;;1040921;28;803;-34
2022/03/16 03:10:57;;;;;;;;;;;;;;;;;;1040934;28;1004;-37
2022/03/16 03:11:27;;;;;;;;;;;;;;;;;;1040841;28;806;-33
2022/03/16 03:11:59;;;;;;;;;;;;;;;;;;1041023;28;849;-31
2022/03/16 03:12:33;;;;;;;;;;;;;;;;;;1040825;28;818;-33
2022/03/16 03:13:03;;;;;;;;;;;;;;;;;;1041025;28;815;-36
2022/03/16 03:13:35;;;;;;;;;;;;;;;;;;1040925;28;973;-33
2022/03/16 03:14:05;;;;;;;;;;;;;;;;;;1040940;28;901;-32
2022/03/16 03:14:35;;;;;;;;;;;;;;;;;;1040822;28;805;-35
2022/03/16 03:15:09;;;;;;;;;;;;;;;;;;1040823;28;858;-32
2022/03/16 03:15:41;;;;;;;;;;;;;;;;;;1040910;28;992;-36
2022/03/16 03:16:12;;;;;;;;;;;;;;;;;;1040861;28;882;-32
2022/03/16 03:16:42;;;;;;;;;;;;;;;;;;1040745;28;882;-35
2022/03/16 03:17:12;;;;;;;;;;;;;;;;;;1040552;28;964;-34
2022/03/16 03:17:43;;;;;;;;;;;;;;;;;;1040760;28;882;-36
2022/03/16 03:18:13;;;;;;;;;;;;;;;;;;1040914;28;945;-36
2022/03/16 03:18:44;;;;;;;;;;;;;;;;;;1041016;28;854;-36
2022/03/16 03:19:14;;;;;;;;;;;;;;;;;;1040853;28;894;-35
2022/03/16 03:19:45;;;;;;;;;;;;;;;;;;1041019;28;901;-34
2022/03/16 03:20:15;;;;;;;;;;;;;;;;;;1040918;28;870;-32
2022/03/16 03:20:45;;;;;;;;;;;;;;;;;;1040857;28;854;-35
2022/03/16 03:21:16;;;;;;;;;;;;;;;;;;1041012;28;882;-36
2022/03/16 03:21:46;;;;;;;;;;;;;;;;;;1040760;28;889;-35
2022/03/16 03:22:17;;;;;;;;;;;;;;;;;;1041069;28;937;-34
2022/03/16 03:22:47;;;;;;;;;;;;;;;;;;1040769;28;885;-36
2022/03/16 03:23:17;;;;;;;;;;;;;;;;;;1040962;28;815;-35
2022/03/16 03:23:47;;;;;;;;;;;;;;;;;;1040913;28;838;-36
2022/03/16 03:24:18;;;;;;;;;;;;;;;;;;1040326;28;984;-35
2022/03/16 03:24:48;;;;;;;;;;;;;;;;;;1040862;28;846;-37
2022/03/16 03:25:19;;;;;;;;;;;;;;;;;;1040803;28;1906;-33
2022/03/16 03:25:49;;;;;;;;;;;;;;;;;;1040858;28;791;-35
2022/03/16 03:26:20;;;;;;;;;;;;;;;;;;1040972;28;902;-35
2022/03/16 03:26:50;;;;;;;;;;;;;;;;;;1040729;28;823;-33
2022/03/16 03:27:20;;;;;;;;;;;;;;;;;;1040962;28;1005;-36
2022/03/16 03:27:51;;;;;;;;;;;;;;;;;;1040704;28;1004;-35
2022/03/16 03:28:21;;;;;;;;;;;;;;;;;;1040819;28;941;-34
2022/03/16 03:28:51;;;;;;;;;;;;;;;;;;1040803;28;827;-34
2022/03/16 03:29:22;;;;;;;;;;;;;;;;;;1040927;28;982;-36
2022/03/16 03:29:52;;;;;;;;;;;;;;;;;;1040751;28;825;-37
2022/03/16 03:30:22;;;;;;;;;;;;;;;;;;1041127;28;948;-35
2022/03/16 03:30:53;;;;;;;;;;;;;;;;;;1040289;28;976;-36
2022/03/16 03:31:23;;;;;;;;;;;;;;;;;;1040683;28;807;-34
2022/03/16 03:31:53;;;;;;;;;;;;;;;;;;1039828;28;854;-37
2022/03/16 03:32:23;;;;;;;;;;;;;;;;;;1040676;28;846;-35
2022/03/16 03:32:55;;;;;;;;;;;;;;;;;;1040830;28;937;-35
2022/03/16 03:33:25;;;;;;;;;;;;;;;;;;1040870;28;894;-37
2022/03/16 03:33:55;;;;;;;;;;;;;;;;;;1040840;28;882;-35
2022/03/16 03:34:26;;;;;;;;;;;;;;;;;;1040976;28;842;-32
2022/03/16 03:34:56;;;;;;;;;;;;;;;;;;1040675;28;910;-34
2022/03/16 03:35:27;;;;;;;;;;;;;;;;;;1040870;28;807;-35
2022/03/16 03:35:57;;;;;;;;;;;;;;;;;;1040863;28;832;-35
2022/03/16 03:36:27;;;;;;;;;;;;;;;;;;1040912;28;969;-36
2022/03/16 03:36:59;;;;;;;;;;;;;;;;;;1040847;28;814;-36
2022/03/16 03:37:29;;;;;;;;;;;;;;;;;;1040812;28;914;-34